Time;durP1;ratioP1;P1;durP2;ratioP2;P2;SDS_P1;SDS_P2;PMS_P1;PMS_P2;Temp;Humidity;BMP_temperature;BMP_pressure;BME280_temperature;BME280_humidity;BME280_pressure;Samples;Min_cycle;Max_cycle;Signal;HPM_P1;HPM_P2
2020/12/15 00:00:43;;;;;;;86.75;53.15;;;;;;;2.07;71.40;100484.09;124445;1098;104602;-76
2020/12/15 00:03:11;;;;;;;82.10;45.73;;;;;;;2.05;71.56;100488.59;124412;1099;104522;-76
2020/12/15 00:05:40;;;;;;;107.25;66.75;;;;;;;1.99;71.32;100486.34;124579;1098;104503;-78
2020/12/15 00:08:08;;;;;;;123.40;81.70;;;;;;;1.95;71.72;100494.41;124575;1099;104600;-77
2020/12/15 00:10:37;;;;;;;79.60;46.10;;;;;;;1.92;70.67;100493.74;124466;1098;104583;-77
2020/12/15 00:13:05;;;;;;;66.23;37.97;;;;;;;1.93;70.90;100490.19;124430;1098;104512;-77
2020/12/15 00:15:33;;;;;;;99.10;60.60;;;;;;;1.91;71.52;100478.91;124460;1098;104516;-75
2020/12/15 00:18:01;;;;;;;87.27;49.30;;;;;;;1.89;72.33;100479.00;124454;1098;104622;-75
2020/12/15 00:20:30;;;;;;;196.40;123.33;;;;;;;1.86;72.25;100476.53;124533;1098;104528;-76
2020/12/15 00:22:58;;;;;;;81.37;45.00;;;;;;;1.86;72.01;100481.80;124455;1099;104526;-79
2020/12/15 00:25:26;;;;;;;75.80;38.17;;;;;;;1.85;71.10;100481.88;124462;1098;104635;-76
2020/12/15 00:27:55;;;;;;;93.97;56.77;;;;;;;1.83;70.72;100473.23;124455;1098;104739;-77
2020/12/15 00:30:24;;;;;;;54.25;30.35;;;;;;;1.82;72.05;100477.66;124449;1098;104678;-77
2020/12/15 00:32:52;;;;;;;63.30;38.73;;;;;;;1.81;72.10;100462.83;124461;1098;104515;-76
2020/12/15 00:35:20;;;;;;;51.57;28.20;;;;;;;1.81;71.29;100465.46;124406;1098;104573;-76
2020/12/15 00:37:48;;;;;;;66.97;40.17;;;;;;;1.83;71.73;100462.71;124469;1098;104647;-77
2020/12/15 00:40:17;;;;;;;66.03;40.00;;;;;;;1.87;71.09;100469.51;124446;1099;104577;-77
2020/12/15 00:42:45;;;;;;;64.00;36.00;;;;;;;1.86;71.93;100463.38;124434;1099;104871;-76
2020/12/15 00:45:13;;;;;;;45.10;24.40;;;;;;;1.89;71.32;100475.52;124420;1099;104567;-76
2020/12/15 00:47:41;;;;;;;43.60;24.80;;;;;;;1.86;72.44;100481.80;124481;1098;104644;-75
2020/12/15 00:50:12;;;;;;;43.97;24.83;;;;;;;1.87;72.38;100474.77;124457;1098;104609;-76
2020/12/15 00:52:41;;;;;;;46.35;26.73;;;;;;;1.87;71.85;100480.03;124439;1098;104576;-76
2020/12/15 00:55:09;;;;;;;43.90;27.20;;;;;;;1.86;71.54;100471.27;124424;1098;104595;-76
2020/12/15 00:57:38;;;;;;;35.90;19.23;;;;;;;1.88;71.20;100476.45;124447;1098;104644;-76
2020/12/15 01:00:10;;;;;;;34.63;19.17;;;;;;;1.86;71.27;100479.16;124439;1098;104506;-75
2020/12/15 01:02:38;;;;;;;32.83;17.67;;;;;;;1.82;71.82;100476.82;124356;1099;105007;-76
2020/12/15 01:05:07;;;;;;;33.77;18.83;;;;;;;1.79;72.28;100472.60;124427;1099;104544;-77
2020/12/15 01:07:35;;;;;;;33.60;18.00;;;;;;;1.78;71.43;100475.31;124477;1098;104609;-79
2020/12/15 01:10:05;;;;;;;30.67;16.80;;;;;;;1.77;71.89;100474.45;124443;1098;104544;-78
2020/12/15 01:12:36;;;;;;;32.23;17.47;;;;;;;1.76;72.76;100486.77;124436;1098;104496;-78
2020/12/15 01:15:05;;;;;;;29.70;16.30;;;;;;;1.76;71.39;100488.55;124524;1098;104519;-77
2020/12/15 01:17:33;;;;;;;31.13;17.37;;;;;;;1.77;72.12;100490.23;124541;1099;105169;-77
2020/12/15 01:20:02;;;;;;;29.00;15.63;;;;;;;1.78;72.21;100488.47;124447;1098;104599;-78
2020/12/15 01:22:32;;;;;;;29.00;17.40;;;;;;;1.81;72.66;100490.90;124443;1098;104522;-76
2020/12/15 01:25:01;;;;;;;32.30;17.13;;;;;;;1.81;71.36;100486.52;124427;1098;104606;-79
2020/12/15 01:27:38;;;;;;;30.57;15.90;;;;;;;1.84;72.26;100493.36;124458;1099;104678;-81
2020/12/15 01:30:14;;;;;;;30.55;15.05;;;;;;;1.79;72.37;100493.65;124443;1098;104980;-80
2020/12/15 01:33:01;;;;;;;27.75;16.15;;;;;;;1.78;72.02;100484.05;124430;1098;104583;-78
2020/12/15 01:35:49;;;;;;;29.47;17.03;;;;;;;1.77;71.72;100495.49;124444;1098;104587;-79
2020/12/15 01:38:21;;;;;;;29.17;16.27;;;;;;;1.83;72.85;100487.27;124565;1098;104669;-79
2020/12/15 01:40:50;;;;;;;29.07;16.50;;;;;;;1.87;72.86;100491.40;124525;1098;104569;-79
2020/12/15 01:43:19;;;;;;;31.23;17.27;;;;;;;1.91;71.49;100477.12;124425;1098;105081;-78
2020/12/15 01:45:47;;;;;;;33.00;17.80;;;;;;;1.86;71.96;100488.85;124468;1098;104559;-75
2020/12/15 01:48:16;;;;;;;30.40;17.83;;;;;;;1.86;72.99;100483.59;124504;1098;104644;-74
2020/12/15 01:50:50;;;;;;;33.40;18.07;;;;;;;1.86;71.76;100479.16;124570;1098;104562;-74
2020/12/15 01:53:19;;;;;;;33.17;17.47;;;;;;;1.88;71.97;100476.45;124495;1098;104580;-77
2020/12/15 01:55:49;;;;;;;30.03;16.47;;;;;;;1.89;73.07;100481.63;124444;1098;104603;-78
2020/12/15 01:58:20;;;;;;;31.13;16.83;;;;;;;1.95;72.36;100473.36;124467;1098;104659;-78
2020/12/15 02:00:56;;;;;;;30.90;18.30;;;;;;;2.03;73.05;100490.48;124335;1098;104681;-78
2020/12/15 02:03:24;;;;;;;35.60;20.47;;;;;;;2.02;71.64;100483.51;124368;1098;104496;-77
2020/12/15 02:06:12;;;;;;;36.70;19.10;;;;;;;1.97;71.99;100486.43;124481;1098;104602;-78
2020/12/15 02:09:01;;;;;;;33.60;19.10;;;;;;;2.00;71.48;100478.33;124353;1098;105118;-74
2020/12/15 02:11:31;;;;;;;34.07;18.10;;;;;;;2.00;71.99;100488.02;124454;1098;104563;-75
2020/12/15 02:13:59;;;;;;;32.67;19.07;;;;;;;1.99;72.99;100488.97;124494;1098;104605;-75
2020/12/15 02:16:30;;;;;;;30.80;17.23;;;;;;;1.98;71.50;100495.16;124347;1098;105076;-73
2020/12/15 02:18:59;;;;;;;31.83;15.00;;;;;;;1.91;72.41;100492.91;124405;1098;104635;-77
2020/12/15 02:21:30;;;;;;;28.00;13.55;;;;;;;1.92;71.80;100497.21;124463;1098;104541;-75
2020/12/15 02:24:03;;;;;;;26.23;13.43;;;;;;;1.93;71.46;100496.29;124463;1098;104538;-76
2020/12/15 02:26:38;;;;;;;23.43;13.03;;;;;;;1.94;72.78;100499.76;124309;1098;105259;-75
2020/12/15 02:29:07;;;;;;;26.30;12.20;;;;;;;1.94;71.36;100491.86;124475;1098;104641;-77
2020/12/15 02:31:35;;;;;;;30.23;15.87;;;;;;;1.94;72.62;100490.10;124429;1098;104692;-78
2020/12/15 02:34:04;;;;;;;27.80;16.07;;;;;;;1.93;71.45;100495.45;124474;1098;104641;-78
2020/12/15 02:36:32;;;;;;;30.65;14.40;;;;;;;1.89;72.73;100494.78;124436;1098;104605;-78
2020/12/15 02:39:09;;;;;;;34.10;16.90;;;;;;;1.88;72.71;100498.34;124488;1098;104637;-77
2020/12/15 02:41:38;;;;;;;26.00;12.37;;;;;;;1.93;72.89;100498.92;124520;1098;104525;-80
2020/12/15 02:44:10;;;;;;;31.80;17.95;;;;;;;1.98;72.12;100500.42;124363;1098;105540;-80
2020/12/15 02:46:42;;;;;;;34.10;17.50;;;;;;;2.00;73.06;100502.02;124357;1098;105019;-79
2020/12/15 02:49:10;;;;;;;29.30;15.95;;;;;;;2.00;72.54;100498.55;124470;1098;104724;-77
2020/12/15 02:51:38;;;;;;;31.83;16.73;;;;;;;1.99;72.35;100497.71;124421;1098;104698;-79
2020/12/15 02:54:14;;;;;;;29.07;13.47;;;;;;;2.00;72.98;100480.13;124407;1098;104515;-76
2020/12/15 02:56:47;;;;;;;33.23;17.20;;;;;;;2.02;72.20;100486.14;124423;1098;104640;-76
2020/12/15 02:59:15;;;;;;;33.33;15.80;;;;;;;2.02;73.08;100486.14;124477;1098;104614;-77
2020/12/15 03:01:44;;;;;;;37.00;19.67;;;;;;;2.02;72.67;100479.11;124447;1098;104526;-78
2020/12/15 03:04:13;;;;;;;34.30;18.47;;;;;;;2.05;72.74;100478.91;124478;1098;104516;-75
2020/12/15 03:06:44;;;;;;;35.50;18.23;;;;;;;2.05;71.66;100472.81;124456;1098;104628;-77
2020/12/15 03:09:18;;;;;;;35.43;18.03;;;;;;;2.06;72.40;100474.48;124550;1098;106231;-76
2020/12/15 03:11:55;;;;;;;36.33;18.03;;;;;;;2.04;72.01;100476.36;124487;1098;104598;-78
2020/12/15 03:14:28;;;;;;;34.33;18.23;;;;;;;2.05;71.82;100473.64;124441;1098;104677;-76
2020/12/15 03:16:57;;;;;;;34.83;18.30;;;;;;;2.11;73.26;100477.69;124329;1098;104573;-76
2020/12/15 03:19:27;;;;;;;37.70;18.65;;;;;;;2.10;71.79;100470.75;124468;1098;104981;-75
2020/12/15 03:21:57;;;;;;;35.90;19.57;;;;;;;2.09;72.46;100469.05;124552;1099;104720;-75
2020/12/15 03:24:26;;;;;;;31.27;16.43;;;;;;;2.06;73.06;100464.83;124443;1098;104532;-76
2020/12/15 03:26:54;;;;;;;32.87;16.77;;;;;;;2.05;72.48;100473.64;124463;1098;104647;-77
2020/12/15 03:29:23;;;;;;;32.77;16.47;;;;;;;2.07;73.17;100465.66;124457;1098;104736;-76
2020/12/15 03:31:52;;;;;;;32.03;15.90;;;;;;;2.08;72.49;100462.07;124448;1098;104592;-77
2020/12/15 03:34:25;;;;;;;32.03;17.40;;;;;;;2.11;72.48;100465.37;124428;1098;104638;-77
2020/12/15 03:36:54;;;;;;;31.50;16.73;;;;;;;2.15;73.20;100468.66;124416;1098;104570;-76
2020/12/15 03:39:23;;;;;;;36.97;18.60;;;;;;;2.14;73.11;100477.52;124457;1098;104626;-79
2020/12/15 03:41:54;;;;;;;34.27;17.83;;;;;;;2.11;72.38;100481.16;124439;1098;104611;-79
2020/12/15 03:44:24;;;;;;;33.07;16.37;;;;;;;2.10;73.04;100476.02;124438;1098;104531;-79
2020/12/15 03:47:07;;;;;;;32.90;16.80;;;;;;;2.08;73.24;100472.60;124428;1098;104635;-79
2020/12/15 03:49:35;;;;;;;32.50;16.00;;;;;;;2.08;72.34;100469.97;124344;1098;104602;-80
2020/12/15 03:52:03;;;;;;;28.63;14.47;;;;;;;2.11;73.38;100468.00;124542;1098;104614;-77
2020/12/15 03:54:43;;;;;;;40.43;20.37;;;;;;;2.15;73.25;100464.23;124396;1098;104494;-75
2020/12/15 03:57:40;;;;;;;36.13;18.17;;;;;;;2.23;71.89;100470.83;124307;1098;104530;-76
2020/12/15 04:00:21;;;;;;;33.45;17.50;;;;;;;2.21;73.20;100473.55;124381;1098;104794;-77
2020/12/15 04:02:58;;;;;;;33.67;16.97;;;;;;;2.20;73.18;100471.03;124418;1098;104959;-75
2020/12/15 04:05:35;;;;;;;31.97;15.80;;;;;;;2.14;71.86;100462.56;124495;1098;104573;-75
2020/12/15 04:08:03;;;;;;;33.80;15.70;;;;;;;2.14;72.67;100461.72;124466;1098;104997;-78
2020/12/15 04:10:33;;;;;;;58.13;31.80;;;;;;;2.15;73.18;100466.03;124298;1098;104659;-77
2020/12/15 04:13:01;;;;;;;85.15;47.65;;;;;;;2.16;72.52;100470.38;124529;1098;104613;-77
2020/12/15 04:15:34;;;;;;;166.40;111.57;;;;;;;2.19;72.54;100462.27;124545;1098;104526;-77
2020/12/15 04:18:05;;;;;;;170.37;115.40;;;;;;;2.16;73.18;100454.58;124598;1098;104596;-77
2020/12/15 04:20:33;;;;;;;204.03;170.27;;;;;;;2.14;73.29;100457.30;124496;1098;104474;-77
2020/12/15 04:23:02;;;;;;;198.67;140.03;;;;;;;2.13;73.08;100467.91;124539;1098;104612;-75
2020/12/15 04:25:36;;;;;;;639.07;407.80;;;;;;;2.10;73.55;100468.95;124516;1098;104518;-75
2020/12/15 04:28:04;;;;;;;682.80;413.00;;;;;;;2.08;72.84;100464.70;124308;1098;104621;-75
2020/12/15 04:30:32;;;;;;;505.40;267.67;;;;;;;2.06;72.56;100461.32;124435;1098;104707;-79
2020/12/15 04:33:01;;;;;;;377.63;183.60;;;;;;;2.09;72.29;100463.78;124403;1098;104503;-77
2020/12/15 04:35:38;;;;;;;276.53;142.67;;;;;;;2.05;73.59;100460.48;124259;1098;105160;-79
2020/12/15 04:38:07;;;;;;;357.10;234.43;;;;;;;2.03;73.06;100453.63;124364;1098;104593;-78
2020/12/15 04:40:37;;;;;;;386.85;262.65;;;;;;;2.04;72.62;100450.91;124495;1098;104791;-76
2020/12/15 04:43:09;;;;;;;348.70;230.47;;;;;;;2.07;73.60;100457.77;124455;1098;104595;-76
2020/12/15 04:45:41;;;;;;;549.83;364.50;;;;;;;2.06;72.42;100464.83;124433;1098;104692;-77
2020/12/15 04:48:12;;;;;;;306.93;169.33;;;;;;;2.07;72.88;100460.40;124408;1098;104544;-77
2020/12/15 04:51:20;;;;;;;198.47;102.00;;;;;;;2.09;73.00;100455.88;124426;1098;104567;-78
2020/12/15 04:53:57;;;;;;;405.63;270.30;;;;;;;2.09;72.72;100458.52;124480;1098;104527;-76
2020/12/15 04:56:46;;;;;;;404.47;270.47;;;;;;;2.08;73.68;100467.34;124381;1098;104599;-75
2020/12/15 04:59:30;;;;;;;347.07;231.83;;;;;;;2.04;72.14;100464.08;124403;1098;104605;-76
2020/12/15 05:02:03;;;;;;;203.47;121.57;;;;;;;2.03;72.37;100458.89;124467;1098;104605;-77
2020/12/15 05:04:39;;;;;;;152.82;93.82;;;;;;;2.04;73.72;100460.57;124460;1098;104603;-77
2020/12/15 05:07:11;;;;;;;79.40;42.33;;;;;;;2.04;73.62;100463.20;124312;1098;104650;-77
2020/12/15 05:10:05;;;;;;;90.03;52.63;;;;;;;2.01;72.25;100458.14;124387;1098;104621;-78
2020/12/15 05:12:52;;;;;;;104.03;69.17;;;;;;;2.00;72.04;100469.59;124470;1098;104692;-77
2020/12/15 05:15:21;;;;;;;76.53;39.80;;;;;;;1.96;73.65;100463.67;124392;1098;104600;-76
2020/12/15 05:17:50;;;;;;;87.60;49.33;;;;;;;1.94;73.23;100458.52;124414;1098;104917;-78
2020/12/15 05:20:28;;;;;;;254.13;174.37;;;;;;;1.93;73.81;100469.97;124481;1098;104603;-77
2020/12/15 05:23:06;;;;;;;98.00;57.10;;;;;;;1.93;72.96;100467.34;124366;1098;104695;-78
2020/12/15 05:25:37;;;;;;;65.37;36.60;;;;;;;1.89;72.60;100457.11;124428;1098;104583;-79
2020/12/15 05:28:13;;;;;;;161.10;127.50;;;;;;;1.91;72.33;100461.33;124401;1098;104571;-77
2020/12/15 05:30:43;;;;;;;141.90;105.37;;;;;;;1.89;73.79;100467.63;124394;1098;104981;-78
2020/12/15 05:33:31;;;;;;;109.83;74.13;;;;;;;1.91;72.78;100471.02;124474;1098;104621;-78
2020/12/15 05:36:22;;;;;;;252.20;172.53;;;;;;;1.92;73.72;100480.58;124412;1098;104600;-77
2020/12/15 05:39:23;;;;;;;177.77;98.97;;;;;;;1.93;72.42;100471.77;124049;1098;106065;-76
2020/12/15 05:42:05;;;;;;;94.87;52.50;;;;;;;1.86;73.91;100473.91;124429;1098;104512;-78
2020/12/15 05:44:36;;;;;;;124.53;74.10;;;;;;;1.86;72.92;100473.06;124294;1098;104647;-77
2020/12/15 05:47:08;;;;;;;107.87;69.20;;;;;;;1.84;73.28;100481.05;124507;1098;104523;-78
2020/12/15 05:49:47;;;;;;;70.53;38.90;;;;;;;1.84;72.91;100483.67;124498;1098;104522;-77
2020/12/15 05:52:16;;;;;;;89.47;43.83;;;;;;;1.81;72.45;100480.38;124393;1098;104990;-77
2020/12/15 05:54:44;;;;;;;102.10;64.23;;;;;;;1.83;72.62;100482.00;124431;1098;104526;-78
2020/12/15 05:57:13;;;;;;;60.70;35.37;;;;;;;1.81;72.70;100475.11;124414;1098;104624;-77
2020/12/15 05:59:41;;;;;;;53.33;31.53;;;;;;;1.78;73.85;100478.78;124279;1098;104589;-77
2020/12/15 06:02:11;;;;;;;264.67;161.87;;;;;;;1.78;73.95;100475.31;124393;1098;104608;-78
2020/12/15 06:04:40;;;;;;;140.70;65.07;;;;;;;1.79;73.93;100480.49;124521;1093;104695;-77
2020/12/15 06:07:10;;;;;;;346.67;187.10;;;;;;;1.81;73.08;100486.52;124390;1098;104623;-77
2020/12/15 06:09:38;;;;;;;575.87;298.57;;;;;;;1.76;74.02;100485.92;124475;1098;104606;-77
2020/12/15 06:12:07;;;;;;;445.85;246.90;;;;;;;1.75;73.54;100486.84;124409;1098;104580;-78
2020/12/15 06:14:35;;;;;;;299.00;154.75;;;;;;;1.76;73.48;100489.39;124497;1099;104669;-77
2020/12/15 06:17:03;;;;;;;151.47;78.33;;;;;;;1.82;73.36;100487.34;124320;1099;104563;-79
2020/12/15 06:19:31;;;;;;;137.70;88.37;;;;;;;1.80;73.70;100502.38;124429;1098;104542;-77
2020/12/15 06:22:01;;;;;;;84.33;49.20;;;;;;;1.79;72.60;100498.91;124454;1093;104528;-77
2020/12/15 06:24:38;;;;;;;90.03;61.00;;;;;;;1.81;72.80;100501.42;124477;1098;104599;-79
2020/12/15 06:27:08;;;;;;;65.80;44.03;;;;;;;1.81;73.36;100501.42;124424;1098;104913;-79
2020/12/15 06:29:38;;;;;;;74.57;52.83;;;;;;;1.76;74.07;100504.34;124389;1098;104519;-79
2020/12/15 06:32:18;;;;;;;137.73;106.10;;;;;;;1.74;72.60;100504.42;124436;1098;104528;-78
2020/12/15 06:34:48;;;;;;;101.53;68.20;;;;;;;1.75;72.73;100505.27;124489;1098;104705;-77
2020/12/15 06:37:18;;;;;;;128.37;75.93;;;;;;;1.73;73.82;100510.64;124387;1098;104588;-77
2020/12/15 06:40:00;;;;;;;483.63;356.50;;;;;;;1.72;72.65;100508.09;124443;1093;104603;-78
2020/12/15 06:42:28;;;;;;;210.03;107.83;;;;;;;1.74;73.74;100501.80;124506;1098;104611;-77
2020/12/15 06:45:04;;;;;;;457.53;321.13;;;;;;;1.77;73.76;100506.02;124508;1093;104583;-79
2020/12/15 06:47:33;;;;;;;341.60;188.30;;;;;;;1.76;73.46;100499.08;124416;1093;104597;-78
2020/12/15 06:50:17;;;;;;;316.23;164.87;;;;;;;1.74;72.85;100500.95;124429;1098;104560;-76
2020/12/15 06:52:46;;;;;;;226.63;118.37;;;;;;;1.68;73.10;100501.32;124420;1098;104609;-78
2020/12/15 06:55:14;;;;;;;203.13;124.47;;;;;;;1.66;72.96;100503.20;124530;1099;104701;-77
2020/12/15 06:57:42;;;;;;;141.27;81.90;;;;;;;1.69;73.67;100516.15;124454;1098;104519;-78
2020/12/15 07:00:12;;;;;;;356.03;259.80;;;;;;;1.69;74.12;100508.27;124414;1098;104567;-78
2020/12/15 07:02:50;;;;;;;222.80;114.53;;;;;;;1.74;72.71;100506.22;124365;1098;104522;-78
2020/12/15 07:05:28;;;;;;;166.67;88.97;;;;;;;1.72;73.54;100508.93;124440;1099;104675;-78
2020/12/15 07:07:58;;;;;;;143.30;81.00;;;;;;;1.72;72.72;100497.57;124413;1098;104996;-77
2020/12/15 07:10:28;;;;;;;125.57;64.67;;;;;;;1.70;74.05;100504.70;124409;1098;104516;-79
2020/12/15 07:12:59;;;;;;;101.03;48.87;;;;;;;1.70;72.94;100512.59;124437;1098;104522;-78
2020/12/15 07:15:28;;;;;;;118.80;66.63;;;;;;;1.74;72.79;100507.05;124495;1098;104638;-77
2020/12/15 07:17:57;;;;;;;80.07;41.77;;;;;;;1.81;73.48;100502.30;124433;1098;104689;-77
2020/12/15 07:20:26;;;;;;;73.30;39.67;;;;;;;1.84;72.70;100509.98;124416;1098;104526;-78
2020/12/15 07:22:54;;;;;;;115.77;72.60;;;;;;;1.85;72.94;100506.44;124405;1098;104538;-77
2020/12/15 07:25:22;;;;;;;115.73;76.13;;;;;;;1.90;73.96;100506.15;124388;1099;104672;-77
2020/12/15 07:27:51;;;;;;;103.73;63.23;;;;;;;1.93;72.89;100504.19;124418;1098;104611;-78
2020/12/15 07:30:21;;;;;;;71.30;39.27;;;;;;;1.92;72.76;100505.11;124436;1098;104637;-76
2020/12/15 07:32:50;;;;;;;110.40;69.73;;;;;;;1.91;72.84;100505.22;124442;1098;104541;-77
2020/12/15 07:35:23;;;;;;;139.63;87.43;;;;;;;1.91;72.86;100508.69;124470;1099;104628;-78
2020/12/15 07:37:54;;;;;;;103.93;65.70;;;;;;;1.98;73.07;100497.80;124487;1098;104541;-77
2020/12/15 07:40:23;;;;;;;68.77;36.33;;;;;;;2.02;72.46;100504.56;124384;1098;104944;-78
2020/12/15 07:42:59;;;;;;;70.10;40.03;;;;;;;2.04;73.49;100500.05;124399;1098;104522;-78
2020/12/15 07:45:29;;;;;;;110.10;70.13;;;;;;;2.02;73.36;100494.91;124472;1099;104621;-79
2020/12/15 07:47:58;;;;;;;73.27;41.10;;;;;;;1.99;73.36;100516.13;124448;1098;104651;-78
2020/12/15 07:50:28;;;;;;;51.33;26.40;;;;;;;1.98;73.23;100505.69;124439;1098;104612;-77
2020/12/15 07:52:57;;;;;;;64.50;37.20;;;;;;;1.98;73.29;100510.95;124418;1098;104595;-77
2020/12/15 07:55:25;;;;;;;114.67;72.73;;;;;;;1.98;73.49;100513.59;124447;1098;104928;-77
2020/12/15 07:57:53;;;;;;;59.93;31.23;;;;;;;1.98;72.91;100510.95;124420;1098;104583;-77
2020/12/15 08:00:22;;;;;;;59.90;32.50;;;;;;;2.00;73.66;100509.08;124390;1098;104590;-79
2020/12/15 08:02:51;;;;;;;55.17;29.40;;;;;;;2.01;72.89;100508.16;124404;1098;104522;-77
2020/12/15 08:05:23;;;;;;;49.73;29.87;;;;;;;2.01;73.02;100508.16;124519;1098;104506;-78
2020/12/15 08:07:51;;;;;;;;;;;;;;;1.94;72.92;100511.16;124502;1093;104506;-77
2020/12/15 08:10:25;;;;;;;44.73;26.60;;;;;;;1.87;72.35;100507.19;124449;1099;104502;-78
2020/12/15 08:12:55;;;;;;;43.57;22.07;;;;;;;1.88;74.12;100500.97;124406;1098;104529;-78
2020/12/15 08:15:24;;;;;;;46.53;25.33;;;;;;;1.88;72.50;100503.59;124451;1099;104685;-78
2020/12/15 08:17:52;;;;;;;79.30;45.57;;;;;;;1.87;72.71;100504.55;124402;1098;104606;-77
2020/12/15 08:20:28;;;;;;;78.07;43.50;;;;;;;1.87;73.75;100507.19;124383;1098;104519;-77
2020/12/15 08:23:07;;;;;;;101.27;52.50;;;;;;;1.93;73.43;100505.98;124366;1098;104624;-77
2020/12/15 08:25:37;;;;;;;154.90;67.73;;;;;;;1.95;73.29;100510.20;124472;1098;104590;-78
2020/12/15 08:28:09;;;;;;;200.23;88.43;;;;;;;1.95;73.85;100509.36;124603;1098;104589;-76
2020/12/15 08:30:38;;;;;;;438.10;203.80;;;;;;;1.98;73.34;100513.59;124427;1098;104529;-77
2020/12/15 08:33:06;;;;;;;392.30;159.65;;;;;;;1.94;72.48;100503.27;124456;1098;104531;-77
2020/12/15 08:35:35;;;;;;;808.90;431.80;;;;;;;1.95;73.84;100515.47;124431;1098;104663;-77
2020/12/15 08:38:05;;;;;;;1430.83;719.57;;;;;;;1.99;73.17;100517.92;124406;1098;104616;-78
2020/12/15 08:40:34;;;;;;;607.35;259.30;;;;;;;2.00;73.12;100519.60;124463;1098;104529;-77
2020/12/15 08:43:03;;;;;;;433.40;172.90;;;;;;;2.01;72.55;100519.52;124393;1098;104629;-78
2020/12/15 08:45:32;;;;;;;290.83;108.67;;;;;;;2.09;72.91;100526.95;124464;1098;104701;-77
2020/12/15 08:48:01;;;;;;;517.97;258.53;;;;;;;2.14;72.98;100531.01;124425;1098;104531;-77
2020/12/15 08:50:30;;;;;;;696.37;373.70;;;;;;;2.15;72.40;100527.41;124398;1099;104669;-78
2020/12/15 08:53:09;;;;;;;460.43;225.57;;;;;;;2.16;73.06;100533.55;124539;1093;104538;-77
2020/12/15 08:55:38;;;;;;;567.50;339.83;;;;;;;2.17;72.42;100524.70;124563;1093;104672;-78
2020/12/15 08:58:08;;;;;;;346.27;190.90;;;;;;;2.20;73.57;100529.79;124520;1093;104723;-78
2020/12/15 09:00:39;;;;;;;271.50;139.15;;;;;;;2.21;73.81;100531.47;124625;1093;104532;-76
2020/12/15 09:03:09;;;;;;;183.68;86.20;;;;;;;2.24;72.96;100535.72;124464;1099;105144;-78
2020/12/15 09:05:52;;;;;;;385.80;231.70;;;;;;;2.28;73.33;100535.43;124557;1098;104618;-79
2020/12/15 09:08:22;;;;;;;321.87;160.03;;;;;;;2.28;72.30;100532.80;124407;1098;104551;-79
2020/12/15 09:10:51;;;;;;;441.47;248.03;;;;;;;2.28;72.38;100527.53;124453;1098;104995;-77
2020/12/15 09:13:19;;;;;;;379.70;186.53;;;;;;;2.30;72.81;100525.65;124433;1098;104734;-76
2020/12/15 09:15:49;;;;;;;453.97;256.23;;;;;;;2.29;72.21;100523.11;124448;1099;104776;-77
2020/12/15 09:18:28;;;;;;;279.23;134.23;;;;;;;2.29;72.93;100526.61;124460;1098;104603;-77
2020/12/15 09:20:56;;;;;;;447.53;304.33;;;;;;;2.30;72.75;100525.65;124371;1098;104541;-77
2020/12/15 09:23:27;;;;;;;261.33;143.53;;;;;;;2.31;72.04;100521.22;124393;1099;104592;-77
2020/12/15 09:25:56;;;;;;;184.48;99.97;;;;;;;2.29;73.89;100516.08;124412;1098;105114;-77
2020/12/15 09:28:28;;;;;;;108.17;61.13;;;;;;;2.30;73.17;100509.84;124499;1098;104608;-78
2020/12/15 09:30:57;;;;;;;70.13;42.30;;;;;;;2.32;72.85;100513.23;124477;1098;104612;-77
2020/12/15 09:33:25;;;;;;;77.27;49.63;;;;;;;2.32;73.70;100513.23;124427;1098;104532;-78
2020/12/15 09:35:53;;;;;;;158.70;109.95;;;;;;;2.30;72.80;100509.02;124472;1099;104669;-77
2020/12/15 09:38:22;;;;;;;59.50;35.77;;;;;;;2.29;72.61;100513.44;124523;1098;104708;-77
2020/12/15 09:40:50;;;;;;;100.13;65.10;;;;;;;2.24;72.65;100504.97;124486;1098;104520;-78
2020/12/15 09:43:18;;;;;;;132.80;97.20;;;;;;;2.20;72.82;100507.89;124450;1099;104500;-77
2020/12/15 09:45:47;;;;;;;73.50;46.90;;;;;;;2.20;73.73;100508.73;124424;1098;104666;-79
2020/12/15 09:48:15;;;;;;;61.87;42.17;;;;;;;2.24;72.75;100510.23;124384;1098;104587;-77
2020/12/15 09:50:43;;;;;;;47.63;31.03;;;;;;;2.31;72.57;100511.56;124412;1099;104643;-77
2020/12/15 09:53:11;;;;;;;44.05;29.50;;;;;;;2.33;72.82;100507.05;124396;1098;104541;-77
2020/12/15 09:55:39;;;;;;;56.03;35.57;;;;;;;2.36;72.75;100498.94;124475;1098;104945;-79
2020/12/15 09:58:08;;;;;;;45.60;29.80;;;;;;;2.37;73.46;100510.34;124421;1098;104592;-78
2020/12/15 10:00:36;;;;;;;47.43;32.63;;;;;;;2.36;72.17;100501.56;124366;1099;104484;-77
2020/12/15 10:03:04;;;;;;;38.77;24.80;;;;;;;2.38;73.56;100490.11;124524;1098;104573;-77
2020/12/15 10:05:32;;;;;;;41.80;25.65;;;;;;;2.38;73.20;100493.58;124478;1098;104669;-77
2020/12/15 10:08:00;;;;;;;36.55;22.45;;;;;;;2.40;72.56;100488.22;124425;1099;104573;-78
2020/12/15 10:10:29;;;;;;;39.23;24.10;;;;;;;2.42;72.69;100486.34;124398;1098;104519;-77
2020/12/15 10:12:57;;;;;;;38.07;26.27;;;;;;;2.44;72.61;100481.82;124395;1098;104550;-78
2020/12/15 10:15:26;;;;;;;41.35;25.85;;;;;;;2.48;72.74;100489.45;124415;1098;104676;-77
2020/12/15 10:17:55;;;;;;;45.80;26.60;;;;;;;2.50;72.72;100484.06;124421;1099;104539;-77
2020/12/15 10:20:23;;;;;;;46.40;26.27;;;;;;;2.50;73.34;100481.44;124436;1098;104529;-77
2020/12/15 10:22:51;;;;;;;42.67;26.27;;;;;;;2.49;72.49;100472.70;124431;1098;104609;-77
2020/12/15 10:25:20;;;;;;;62.80;42.07;;;;;;;2.52;72.63;100463.74;124437;1098;104637;-78
2020/12/15 10:27:48;;;;;;;49.85;34.00;;;;;;;2.57;72.45;100463.47;124382;1098;104680;-77
2020/12/15 10:30:16;;;;;;;50.90;34.97;;;;;;;2.64;72.32;100464.78;124401;1098;104602;-78
2020/12/15 10:32:45;;;;;;;76.13;48.83;;;;;;;2.68;72.90;100467.12;124607;1093;104519;-77
2020/12/15 10:35:14;;;;;;;54.00;29.67;;;;;;;2.70;73.23;100465.23;124422;1098;104629;-78
2020/12/15 10:37:42;;;;;;;79.60;57.93;;;;;;;2.71;73.26;100453.77;124406;1098;104610;-77
2020/12/15 10:40:10;;;;;;;55.47;35.07;;;;;;;2.77;72.96;100460.40;124395;1098;104533;-79
2020/12/15 10:42:38;;;;;;;57.25;36.55;;;;;;;2.81;71.58;100461.92;124396;1098;104615;-77
2020/12/15 10:45:07;;;;;;;36.00;21.67;;;;;;;2.87;72.67;100465.95;124467;1098;104957;-77
2020/12/15 10:47:35;;;;;;;42.25;28.95;;;;;;;2.88;72.92;100459.72;124386;1098;104986;-79
2020/12/15 10:50:04;;;;;;;43.30;24.43;;;;;;;2.88;72.10;100457.09;124378;1098;104615;-77
2020/12/15 10:52:32;;;;;;;44.47;24.00;;;;;;;2.88;72.62;100455.29;124369;1098;104567;-77
2020/12/15 10:55:02;;;;;;;94.57;60.93;;;;;;;2.87;71.98;100450.14;124408;1098;104608;-79
2020/12/15 10:57:31;;;;;;;66.80;38.50;;;;;;;2.87;72.09;100444.88;124398;1098;104532;-76
2020/12/15 10:59:59;;;;;;;99.07;42.70;;;;;;;2.82;72.29;100454.86;124460;1093;104609;-78
2020/12/15 11:02:27;;;;;;;68.33;32.10;;;;;;;2.80;73.02;100444.41;124420;1099;104609;-77
2020/12/15 11:04:55;;;;;;;43.60;24.45;;;;;;;2.79;72.95;100447.13;124494;1098;104612;-77
2020/12/15 11:07:23;;;;;;;38.90;22.90;;;;;;;2.78;72.68;100450.73;124434;1098;104637;-76
2020/12/15 11:09:52;;;;;;;34.75;20.25;;;;;;;2.76;72.64;100453.45;124410;1098;104589;-77
2020/12/15 11:12:20;;;;;;;37.03;20.63;;;;;;;2.74;71.64;100445.64;124451;1098;104571;-76
2020/12/15 11:14:48;;;;;;;37.70;20.43;;;;;;;2.75;71.32;100449.11;124467;1098;105044;-77